Terminal Aerodrome Forecast
Issued by NWS Shreveport, LA

Home | Current Version | Previous Version | Text Only | Print | Product List | Glossary On
Versions: 1 2 3 4 5 6 7 8 9 10 11 12 13 14 15 16 17 18
000
FTUS44 KSHV 210700 AAA
TAFLFK
TAF AMD
KLFK 210749Z 2108/2206 00000KT 5SM BR SKC
     FM210900 00000KT 4SM BR SCT002
      TEMPO 2109/2113 1/2SM FG BKN002
     FM211300 00000KT 2SM BR SCT002
      TEMPO 2113/2115 1/2SM FG BKN002
     FM211600 14005KT 6SM BR SCT008 BKN012
     FM211800 15005KT P6SM SCT017 SCT250
     FM212000 15006KT P6SM SCT035 SCT250=

USA.gov is the U.S. government's official web portal to all federal, state and local government web resources and services.